Latest Coastal Weather Observations for South Johnstone

IDQ60701

Issued at 8:41 pm EST Saturday 20 December 2014 (issued every 10 minutes, with the page automatically refreshed every 10 minutes)

About coastal observations | Map of coastal stations | Coastal observations for QLD | Marine services | Other Formats
Station Details ID: 032037 Name: SOUTH JOHNSTONE EXP STN Lat: -17.61 Lon: 146.00 Height: 18.3 m
Data from the previous 72 hours. | See also: Recent months at South Johnstone
Date/Time
EST
Temp

°C
Wind Pressure Rain
since 9am
mm
Weather Cloud Vis
km
Sea
Height
m
Swell
Dir
 
Speed
knots
Gust
knots
hPa Trend Height
m
Period
s
Dir
20/08:30pm 25.5 CALM 0 0 1011.4 - 0.0 - - - - - - -
20/08:00pm 25.9 E 1 3 1010.8 - 0.0 - - - - - - -
20/07:30pm 26.4 CALM 0 0 1010.4 - 0.0 - - - - - - -
20/07:00pm 27.3 ENE 3 5 1010.2 - 0.0 - - - - - - -
20/06:30pm 27.9 NE 6 8 1009.9 - 0.0 - - - - - - -
20/06:00pm 28.4 ENE 6 9 1009.5 - 0.0 - - - - - - -
20/05:30pm 29.4 ENE 6 10 1009.1 - 0.0 - - - - - - -
20/05:00pm 30.4 E 6 10 1008.7 - 0.0 - - - - - - -
20/04:30pm 30.6 E 7 11 1008.6 - 0.0 - - - - - - -
20/04:00pm 30.8 E 8 13 1008.7 - 0.0 - - - - - - -
20/03:30pm 31.2 E 9 12 1009.0 - 0.0 - - - - - - -
20/03:00pm 31.2 E 9 14 1009.0 - 0.0 - - - - - - -
20/02:30pm 31.0 ESE 7 11 1009.3 - 0.0 - - - - - - -
20/02:00pm 31.8 ESE 7 11 1009.6 - 0.0 - - - - - - -
20/01:30pm 32.1 SE 8 13 1010.0 - 0.0 - - - - - - -
20/01:00pm 31.6 E 8 14 1010.6 - 0.0 - - - - - - -
20/12:30pm 31.6 ESE 7 11 1011.0 - 0.0 - - - - - - -
20/12:00pm 30.4 E 7 11 1011.4 - 0.0 - - - - - - -
20/11:30am 30.7 SSE 5 9 1011.9 - 0.0 - - - - - - -
20/11:00am 30.4 E 4 8 1012.2 - 0.0 - - - - - - -
20/10:30am 29.9 E 4 8 1012.0 - 0.0 - - - - - - -
20/10:00am 30.1 SSE 5 9 1012.1 - 0.0 - - - - - - -
20/09:30am 29.0 SE 3 6 1012.1 - 0.0 - - - - - - -
20/09:00am 27.8 WSW 1 4 1012.0 - 0.0 - - - - - - -
20/08:30am 26.0 CALM 0 0 1012.0 - 0.0 - - - - - - -
20/08:00am 25.0 W 1 4 1012.0 - 0.0 - - - - - - -
20/07:30am 24.7 WSW 1 4 1011.8 - 0.0 - - - - - - -
20/07:00am 24.3 CALM 0 0 1011.6 - 0.0 - - - - - - -
20/06:30am 24.2 WSW 1 4 1011.4 - 0.0 - - - - - - -
20/06:00am 24.1 CALM 0 0 1011.0 - 0.0 - - - - - - -
20/05:30am 24.2 W 2 4 1010.6 - 0.0 - - - - - - -
20/05:00am 24.2 W 3 4 1010.4 - 0.0 - - - - - - -
20/04:30am 24.1 WSW 2 5 1010.4 - 0.0 - - - - - - -
20/04:00am 24.3 WSW 3 6 1010.4 - 0.0 - - - - - - -
20/03:30am 24.3 W 2 4 1010.3 - 0.0 - - - - - - -
20/03:00am 24.4 WNW 3 4 1010.4 - 0.0 - - - - - - -
20/02:30am 24.2 W 3 5 1010.7 - 0.0 - - - - - - -
20/02:00am 24.4 W 3 5 1010.8 - 0.0 - - - - - - -
20/01:30am 24.6 SW 5 6 1011.0 - 0.0 - - - - - - -
20/01:00am 24.6 WSW 1 4 1011.5 - 0.0 - - - - - - -
20/12:30am 24.6 WSW 5 7 1011.8 - 0.0 - - - - - - -
20/12:00am 24.8 WSW 2 4 1011.9 - 0.0 - - - - - - -
 
Date/Time
EST
Temp

°C
Wind Pressure Rain
since 9am
mm
Weather Cloud Vis
km
Sea
Height
m
Swell
Dir
 
Speed
knots
Gust
knots
hPa Trend Height
m
Period
s
Dir
19/11:30pm 25.3 WSW 5 6 1012.4 - 0.0 - - - - - - -
19/11:00pm 24.9 WSW 3 5 1012.7 - 0.0 - - - - - - -
19/10:30pm 24.8 CALM 0 0 1012.6 - 0.0 - - - - - - -
19/10:00pm 24.9 SW 1 4 1012.4 - 0.0 - - - - - - -
19/09:30pm 25.2 CALM 0 0 1012.3 - 0.0 - - - - - - -
19/09:00pm 25.1 CALM 0 0 1011.9 - 0.0 - - - - - - -
19/08:30pm 26.3 SSE 4 5 1011.5 - 0.0 - - - - - - -
19/08:00pm 26.0 SE 4 5 1011.0 - 0.0 - - - - - - -
19/07:30pm 26.3 SE 2 4 1010.7 - 0.0 - - - - - - -
19/07:00pm 26.5 ESE 3 4 1010.3 - 0.0 - - - - - - -
19/06:30pm 27.3 ENE 3 5 1010.0 - 0.0 - - - - - - -
19/06:00pm 28.2 ENE 6 9 1009.4 - 0.0 - - - - - - -
19/05:30pm 28.9 ENE 6 9 1009.2 - 0.0 - - - - - - -
19/05:00pm 29.5 NE 7 12 1008.9 - 0.0 - - - - - - -
19/04:30pm 29.8 ENE 7 12 1008.8 - 0.0 - - - - - - -
19/04:00pm 30.1 NE 9 12 1008.7 - 0.0 - - - - - - -
19/03:30pm 30.5 ENE 9 12 1008.8 - 0.0 - - - - - - -
19/03:00pm 30.7 NE 9 14 1008.8 - 0.0 - - - - - - -
19/02:30pm 31.4 NE 8 13 1009.2 - 0.0 - - - - - - -
19/02:00pm 31.2 NE 8 13 1009.5 - 0.0 - - - - - - -
19/01:30pm 31.5 NE 7 10 1009.9 - 0.0 - - - - - - -
19/01:00pm 31.5 NE 6 11 1010.4 - 0.0 - - - - - - -
19/12:30pm 30.9 NE 7 11 1010.8 - 0.0 - - - - - - -
19/12:00pm 31.3 NNE 5 8 1011.0 - 0.0 - - - - - - -
19/11:30am 31.5 CALM 0 3 1011.6 - 0.0 - - - - - - -
19/11:00am 31.1 N 3 6 1011.9 - 0.0 - - - - - - -
19/10:30am 30.8 S 3 6 1012.3 - 0.0 - - - - - - -
19/10:00am 29.7 NNE 3 7 1012.6 - 0.0 - - - - - - -
19/09:30am 29.1 NNE 4 6 1012.6 - 0.0 - - - - - - -
19/09:00am 28.6 NE 3 7 1012.6 - 0.0 - - - - - - -
19/08:30am 28.5 NW 1 3 1012.8 - 0.0 - - - - - - -
19/08:00am 27.2 CALM 0 0 1012.7 - 0.0 - - - - - - -
19/07:30am 26.2 CALM 0 0 1012.7 - 0.0 - - - - - - -
19/07:00am 23.2 W 1 3 1012.6 - 0.0 - - - - - - -
19/06:30am 21.9 WSW 6 7 1012.3 - 0.0 - - - - - - -
19/06:00am 21.4 WSW 6 7 1011.7 - 0.0 - - - - - - -
19/05:30am 21.3 WNW 4 5 1010.8 - 0.0 - - - - - - -
19/05:00am 21.2 WSW 5 7 1010.6 - 0.0 - - - - - - -
19/04:30am 21.4 NW 3 5 1010.1 - 0.0 - - - - - - -
19/04:00am 21.4 W 1 4 1010.0 - 0.0 - - - - - - -
19/03:30am 21.7 CALM 0 0 1010.3 - 0.0 - - - - - - -
19/03:00am 21.9 WNW 2 4 1010.7 - 0.0 - - - - - - -
19/02:30am 22.0 CALM 0 0 1011.0 - 0.0 - - - - - - -
19/02:00am 22.3 W 1 3 1011.4 - 0.0 - - - - - - -
19/01:30am 22.3 CALM 0 0 1011.7 - 0.0 - - - - - - -
19/01:00am 22.3 W 1 3 1012.1 - 0.0 - - - - - - -
19/12:30am 22.7 W 1 4 1012.4 - 0.0 - - - - - - -
19/12:00am 22.8 WSW 6 7 1012.6 - 0.0 - - - - - - -
 
Date/Time
EST
Temp

°C
Wind Pressure Rain
since 9am
mm
Weather Cloud Vis
km
Sea
Height
m
Swell
Dir
 
Speed
knots
Gust
knots
hPa Trend Height
m
Period
s
Dir
18/11:30pm 22.6 WSW 4 7 1012.6 - 0.0 - - - - - - -
18/11:00pm 22.7 WSW 6 8 1012.8 - 0.0 - - - - - - -
18/10:30pm 22.9 WSW 5 8 1012.4 - 0.0 - - - - - - -
18/10:00pm 23.1 WSW 7 8 1012.2 - 0.0 - - - - - - -
18/09:30pm 23.3 W 2 6 1011.6 - 0.0 - - - - - - -
18/09:00pm 24.2 WSW 3 5 1011.5 - 0.0 - - - - - - -
18/08:30pm 24.5 WSW 5 7 1011.4 - 0.0 - - - - - - -
18/08:00pm 25.1 CALM 0 0 1011.2 - 0.0 - - - - - - -
18/07:30pm 25.6 CALM 0 0 1010.8 - 0.0 - - - - - - -
18/07:00pm 26.5 ENE 1 4 1010.6 - 0.0 - - - - - - -
18/06:30pm 27.3 NE 6 8 1009.8 - 0.0 - - - - - - -
18/06:00pm 28.1 ENE 7 10 1009.4 - 0.0 - - - - - - -
18/05:30pm 28.7 NE 8 12 1009.0 - 0.0 - - - - - - -
18/05:00pm 29.4 NE 7 11 1008.7 - 0.0 - - - - - - -
18/04:30pm 29.9 NE 8 12 1008.6 - 0.0 - - - - - - -
18/04:00pm 29.8 NE 9 13 1008.7 - 0.0 - - - - - - -
18/03:30pm 30.3 NNE 8 13 1009.0 - 0.0 - - - - - - -
18/03:00pm 30.4 NE 9 12 1009.4 - 0.0 - - - - - - -
18/02:30pm 30.6 ENE 10 15 1010.0 - 0.0 - - - - - - -
18/02:00pm 30.8 ENE 10 15 1010.1 - 0.0 - - - - - - -
18/01:30pm 31.8 ENE 9 15 1010.2 - 0.0 - - - - - - -
18/01:00pm 30.8 NE 10 14 1010.6 - 0.0 - - - - - - -
18/12:30pm 31.7 ENE 9 15 1010.8 - 0.0 - - - - - - -
18/12:00pm 31.0 ENE 8 12 1011.0 - 0.0 - - - - - - -
18/11:30am 31.0 NE 8 14 1011.4 - 0.0 - - - - - - -
18/11:00am 30.9 N 4 10 1011.8 - 0.0 - - - - - - -
18/10:30am 30.7 ENE 5 9 1012.0 - 0.0 - - - - - - -
18/10:00am 29.5 NNE 2 6 1012.1 - 0.0 - - - - - - -
18/09:30am 29.7 NE 4 7 1012.4 - 0.0 - - - - - - -
18/09:00am 29.0 N 3 9 1012.5 - 0.0 - - - - - - -
18/08:30am 28.2 NNE 2 4 1012.5 - 0.0 - - - - - - -
18/08:00am 27.0 WNW 1 4 1012.3 - 0.0 - - - - - - -
18/07:30am 25.4 WNW 1 4 1012.3 - 0.0 - - - - - - -
18/07:00am 23.9 WNW 2 4 1012.1 - 0.0 - - - - - - -
18/06:30am 22.6 SW 3 5 1011.8 - 0.0 - - - - - - -
18/06:00am 21.8 W 1 4 1011.3 - 0.0 - - - - - - -
18/05:30am 21.8 WNW 3 5 1010.8 - 0.0 - - - - - - -
18/05:00am 21.8 CALM 0 2 1010.4 - 0.0 - - - - - - -
18/04:30am 21.9 CALM 0 0 1010.1 - 0.0 - - - - - - -
18/04:00am 22.0 WNW 3 4 1010.0 - 0.0 - - - - - - -
18/03:30am 22.2 W 3 4 1009.6 - 0.0 - - - - - - -
18/03:00am 22.2 W 2 6 1009.4 - 0.0 - - - - - - -
18/02:30am 22.1 WSW 2 6 1009.5 - 0.0 - - - - - - -
18/02:00am 22.6 W 3 5 1009.7 - 0.0 - - - - - - -
18/01:30am 22.5 W 2 5 1009.7 - 0.0 - - - - - - -
18/01:00am 23.0 CALM 0 0 1009.7 - 0.0 - - - - - - -
18/12:30am 23.1 W 1 3 1010.1 - 0.0 - - - - - - -
18/12:00am 23.6 W 1 3 1010.4 - 0.0 - - - - - - -
 
Date/Time
EST
Temp

°C
Wind Pressure Rain
since 9am
mm
Weather Cloud Vis
km
Sea
Height
m
Swell
Dir
 
Speed
knots
Gust
knots
hPa Trend Height
m
Period
s
Dir
17/11:30pm 23.6 W 3 5 1011.0 - 0.0 - - - - - - -
17/11:00pm 23.5 W 3 5 1011.0 - 0.0 - - - - - - -
17/10:30pm 23.6 W 4 5 1011.0 - 0.0 - - - - - - -
17/10:00pm 23.7 WSW 5 8 1011.0 - 0.0 - - - - - - -
17/09:30pm 23.7 CALM 0 3 1010.2 - 0.0 - - - - - - -
17/09:00pm 24.5 WSW 3 4 1009.7 - 0.0 - - - - - - -

Other Formats:

Comma delimited format used in spreadsheet applications
http://www.bom.gov.au/fwo/IDQ60701/IDQ60701.95292.axf

JavaScript Object Notation format (JSON) in row-major order
http://www.bom.gov.au/fwo/IDQ60701/IDQ60701.95292.json